Time;durP1;ratioP1;P1;durP2;ratioP2;P2;SDS_P1;SDS_P2;PMS_P1;PMS_P2;Temp;Humidity;BMP_temperature;BMP_pressure;BME280_temperature;BME280_humidity;BME280_pressure;Samples;Min_cycle;Max_cycle;Signal;HPM_P1;HPM_P2
2023/08/08 00:01:23;;;;;;;2.60;0.80;;;17.30;99.90;;;;;;4971178;28;20188;-84
2023/08/08 00:03:49;;;;;;;4.43;1.00;;;17.20;99.90;;;;;;4980826;28;20176;-84
2023/08/08 00:06:15;;;;;;;2.20;0.87;;;17.20;99.90;;;;;;4980880;28;20203;-83
2023/08/08 00:08:41;;;;;;;4.30;1.10;;;17.10;99.90;;;;;;4947737;28;20598;-84
2023/08/08 00:11:07;;;;;;;2.93;0.90;;;17.10;99.90;;;;;;4980590;28;20196;-84
2023/08/08 00:13:32;;;;;;;2.17;1.03;;;17.10;99.90;;;;;;4971643;28;20646;-84
2023/08/08 00:15:58;;;;;;;2.20;0.70;;;17.10;99.90;;;;;;4977971;28;20286;-84
2023/08/08 00:18:24;;;;;;;3.23;0.90;;;17.00;99.90;;;;;;4977899;28;20183;-84
2023/08/08 00:20:50;;;;;;;1.80;1.00;;;17.00;99.90;;;;;;4934140;29;20235;-84
2023/08/08 00:23:15;;;;;;;3.63;1.00;;;16.90;99.90;;;;;;4973917;28;20172;-84
2023/08/08 00:25:41;;;;;;;3.03;0.90;;;16.90;99.90;;;;;;4979119;28;20215;-84
2023/08/08 00:28:07;;;;;;;2.10;1.10;;;16.80;99.90;;;;;;4975451;28;20551;-84
2023/08/08 00:30:33;;;;;;;2.30;0.93;;;16.80;99.90;;;;;;4977424;28;20671;-84
2023/08/08 00:32:59;;;;;;;2.67;0.90;;;16.70;99.90;;;;;;4978760;28;20643;-84
2023/08/08 00:35:25;;;;;;;2.17;0.80;;;16.70;99.90;;;;;;4978839;28;20268;-84
2023/08/08 00:37:51;;;;;;;2.43;1.13;;;16.60;99.90;;;;;;4974036;28;20597;-84
2023/08/08 00:40:18;;;;;;;1.63;0.77;;;16.60;99.90;;;;;;4973253;28;21003;-85
2023/08/08 00:42:43;;;;;;;2.37;1.00;;;16.50;99.90;;;;;;4945182;28;20594;-85
2023/08/08 00:45:09;;;;;;;2.37;1.10;;;16.50;99.90;;;;;;4966694;28;20180;-84
2023/08/08 00:47:35;;;;;;;2.60;0.93;;;16.40;99.90;;;;;;4975559;28;20186;-84
2023/08/08 00:50:05;;;;;;;1.93;0.83;;;16.40;99.90;;;;;;4944017;28;21010;-84
2023/08/08 00:52:31;;;;;;;3.60;1.20;;;16.30;99.90;;;;;;4975132;28;21007;-84
2023/08/08 00:54:57;;;;;;;2.67;1.13;;;16.30;99.90;;;;;;4975377;28;20722;-84
2023/08/08 00:57:23;;;;;;;2.17;0.90;;;16.30;99.90;;;;;;4974146;28;21421;-84
2023/08/08 00:59:51;;;;;;;6.27;1.53;;;16.20;99.90;;;;;;4976926;28;20587;-84
2023/08/08 01:02:17;;;;;;;3.20;0.90;;;16.20;99.90;;;;;;4979499;28;20595;-83
2023/08/08 01:04:43;;;;;;;8.40;1.60;;;16.20;99.90;;;;;;4951097;28;20992;-85
2023/08/08 01:07:22;;;;;;;2.40;0.87;;;16.20;99.90;;;;;;4967309;28;20641;-83
2023/08/08 01:10:07;;;;;;;1.67;0.97;;;16.10;99.90;;;;;;4978448;28;20599;-84
2023/08/08 01:12:43;;;;;;;3.17;1.00;;;16.20;99.90;;;;;;4976324;28;20606;-84
2023/08/08 01:15:10;;;;;;;2.80;1.40;;;16.20;99.90;;;;;;4925998;29;20614;-84
2023/08/08 01:17:37;;;;;;;2.30;1.30;;;16.20;99.90;;;;;;4957517;28;20615;-84
2023/08/08 01:20:05;;;;;;;4.23;0.80;;;16.20;99.90;;;;;;4946459;29;20592;-84
2023/08/08 01:22:42;;;;;;;3.83;1.00;;;16.20;99.90;;;;;;4964335;28;21055;-84
2023/08/08 01:25:09;;;;;;;3.27;1.00;;;16.20;99.90;;;;;;4966913;28;20609;-84
2023/08/08 01:27:35;;;;;;;3.33;1.00;;;16.20;99.90;;;;;;4960799;28;21204;-84
2023/08/08 01:30:01;;;;;;;1.93;1.00;;;16.20;99.90;;;;;;4989847;28;20746;-84
2023/08/08 01:32:27;;;;;;;1.70;0.90;;;16.20;99.90;;;;;;4965760;28;21010;-84
2023/08/08 01:34:53;;;;;;;1.43;0.80;;;16.20;99.90;;;;;;4950900;28;20666;-84
2023/08/08 01:37:30;;;;;;;1.80;0.80;;;16.20;99.90;;;;;;4974176;28;20671;-83
2023/08/08 01:39:59;;;;;;;2.60;0.83;;;16.30;99.90;;;;;;4959844;28;20587;-84
2023/08/08 01:42:25;;;;;;;3.87;1.10;;;16.30;99.90;;;;;;4965757;28;20587;-84
2023/08/08 01:44:54;;;;;;;2.10;1.00;;;16.30;99.90;;;;;;4972701;28;20588;-84
2023/08/08 01:47:20;;;;;;;3.30;1.00;;;16.30;99.90;;;;;;4940959;28;20583;-84
2023/08/08 01:49:45;;;;;;;1.80;1.07;;;16.30;99.90;;;;;;4972777;28;20584;-84
2023/08/08 01:52:11;;;;;;;1.97;1.00;;;16.30;99.90;;;;;;4971714;28;20179;-83
2023/08/08 01:54:37;;;;;;;2.40;1.00;;;16.30;99.90;;;;;;4975442;28;20210;-84
2023/08/08 01:57:03;;;;;;;2.13;1.00;;;16.30;99.90;;;;;;4972790;28;20199;-84
2023/08/08 01:59:29;;;;;;;2.10;0.87;;;16.30;99.90;;;;;;4956214;28;20215;-84
2023/08/08 02:01:54;;;;;;;3.87;0.90;;;16.30;99.90;;;;;;4956102;28;20968;-84
2023/08/08 02:04:21;;;;;;;2.67;0.80;;;16.30;99.90;;;;;;4964279;28;20701;-84
2023/08/08 02:06:47;;;;;;;2.83;1.07;;;16.30;99.90;;;;;;4972222;28;20611;-84
2023/08/08 02:09:14;;;;;;;2.57;0.97;;;16.30;99.90;;;;;;4969064;28;20195;-83
2023/08/08 02:11:41;;;;;;;4.40;0.93;;;16.30;99.90;;;;;;4971307;28;20187;-84
2023/08/08 02:14:06;;;;;;;2.00;1.00;;;16.30;99.90;;;;;;4956257;28;21254;-84
2023/08/08 02:16:32;;;;;;;2.80;0.90;;;16.30;99.90;;;;;;4973034;28;20714;-83
2023/08/08 02:18:58;;;;;;;3.67;0.90;;;16.30;99.90;;;;;;4969443;28;20611;-84
2023/08/08 02:21:23;;;;;;;2.97;0.80;;;16.30;99.90;;;;;;4976187;28;20652;-84
2023/08/08 02:23:49;;;;;;;2.20;0.90;;;16.30;99.90;;;;;;4974872;28;20188;-84
2023/08/08 02:26:15;;;;;;;3.50;1.00;;;16.20;99.90;;;;;;4938121;29;20257;-84
2023/08/08 02:28:41;;;;;;;2.33;1.00;;;16.20;99.90;;;;;;4965046;28;20188;-84
2023/08/08 02:31:06;;;;;;;2.03;1.00;;;16.10;99.90;;;;;;4975775;28;20211;-85
2023/08/08 02:33:32;;;;;;;3.07;1.20;;;16.10;99.90;;;;;;4973476;28;20258;-85
2023/08/08 02:35:58;;;;;;;3.10;0.90;;;16.10;99.90;;;;;;4933851;28;20285;-85
2023/08/08 02:38:25;;;;;;;1.60;1.13;;;16.00;99.90;;;;;;4974008;28;20223;-85
2023/08/08 02:40:50;;;;;;;1.87;0.90;;;16.00;99.90;;;;;;4972572;28;21351;-85
2023/08/08 02:43:16;;;;;;;2.10;1.00;;;16.00;99.90;;;;;;4972016;28;20179;-85
2023/08/08 02:45:42;;;;;;;5.33;1.00;;;15.90;99.90;;;;;;4971795;28;21219;-83
2023/08/08 02:48:08;;;;;;;2.83;0.90;;;15.90;99.90;;;;;;4957499;28;20692;-84
2023/08/08 02:50:34;;;;;;;7.50;1.03;;;15.90;99.90;;;;;;4973053;28;20626;-83
2023/08/08 02:53:00;;;;;;;1.63;0.80;;;15.90;99.90;;;;;;4963992;28;20687;-83
2023/08/08 02:55:32;;;;;;;3.40;0.97;;;15.80;99.90;;;;;;4956409;28;20660;-83
2023/08/08 02:57:58;;;;;;;2.03;0.90;;;15.80;99.90;;;;;;4973034;28;20603;-83
2023/08/08 03:00:24;;;;;;;2.43;0.80;;;15.80;99.90;;;;;;4966917;28;20197;-83
2023/08/08 03:02:52;;;;;;;2.33;1.20;;;15.80;99.90;;;;;;4969849;28;20188;-83
2023/08/08 03:05:18;;;;;;;3.20;0.97;;;15.80;99.90;;;;;;4962792;28;20631;-83
2023/08/08 03:07:44;;;;;;;2.30;1.00;;;15.80;99.90;;;;;;4936941;28;20628;-83
2023/08/08 03:10:13;;;;;;;2.77;1.07;;;15.80;99.90;;;;;;4944879;28;20273;-83
2023/08/08 03:12:41;;;;;;;4.53;1.00;;;15.70;99.90;;;;;;4957050;28;20608;-83
2023/08/08 03:15:08;;;;;;;5.20;0.90;;;15.70;99.90;;;;;;4963551;28;20650;-83
2023/08/08 03:17:34;;;;;;;2.13;1.13;;;15.70;99.90;;;;;;4938124;28;20584;-82
2023/08/08 03:20:01;;;;;;;2.27;0.90;;;15.70;99.90;;;;;;4951177;28;20633;-82
2023/08/08 03:22:27;;;;;;;2.37;1.00;;;15.60;99.90;;;;;;4950481;28;20703;-81
2023/08/08 03:24:52;;;;;;;5.10;1.03;;;15.60;99.90;;;;;;4951304;28;20707;-81
2023/08/08 03:27:18;;;;;;;2.40;1.20;;;15.60;99.90;;;;;;4956801;28;20196;-82
2023/08/08 03:29:48;;;;;;;2.10;0.90;;;15.60;99.90;;;;;;4959843;28;20195;-82
2023/08/08 03:32:16;;;;;;;6.47;1.00;;;15.60;99.90;;;;;;4951141;28;20596;-81
2023/08/08 03:34:41;;;;;;;5.13;1.27;;;15.50;99.90;;;;;;4951469;28;20642;-81
2023/08/08 03:37:07;;;;;;;3.67;1.10;;;15.50;99.90;;;;;;4951357;28;20619;-81
2023/08/08 03:39:35;;;;;;;2.37;0.90;;;15.50;99.90;;;;;;4950980;28;20185;-81
2023/08/08 03:42:01;;;;;;;2.23;1.10;;;15.50;99.90;;;;;;4954948;28;20591;-81
2023/08/08 03:44:26;;;;;;;1.90;0.80;;;15.50;99.90;;;;;;4956293;28;20187;-81
2023/08/08 03:46:52;;;;;;;2.47;1.10;;;15.50;99.90;;;;;;4955228;28;20951;-81
2023/08/08 03:49:18;;;;;;;2.07;0.90;;;15.40;99.90;;;;;;4958075;28;20270;-82
2023/08/08 03:51:44;;;;;;;3.90;1.07;;;15.40;99.90;;;;;;4962573;28;20200;-82
2023/08/08 03:54:10;;;;;;;4.47;1.00;;;15.40;99.90;;;;;;4953116;28;20644;-82
2023/08/08 03:56:35;;;;;;;2.23;0.87;;;15.40;99.90;;;;;;4961007;28;20627;-82
2023/08/08 03:59:01;;;;;;;2.63;0.90;;;15.40;99.90;;;;;;4952405;28;20181;-82
2023/08/08 04:01:27;;;;;;;3.77;1.00;;;15.40;99.90;;;;;;4958910;28;20187;-82
2023/08/08 04:03:52;;;;;;;2.33;0.90;;;15.40;99.90;;;;;;4938067;28;20184;-82
2023/08/08 04:06:18;;;;;;;2.63;0.90;;;15.40;99.90;;;;;;4952439;28;20211;-82
2023/08/08 04:08:44;;;;;;;4.37;2.13;;;15.40;99.90;;;;;;4921738;28;20213;-82
2023/08/08 04:11:09;;;;;;;2.00;1.00;;;15.30;99.90;;;;;;4942848;29;20196;-82
2023/08/08 04:13:35;;;;;;;4.70;1.63;;;15.30;99.90;;;;;;4960887;28;20298;-82
2023/08/08 04:16:02;;;;;;;2.40;1.00;;;15.30;99.90;;;;;;4961170;28;20211;-82
2023/08/08 04:18:27;;;;;;;2.27;0.97;;;15.30;99.90;;;;;;4935945;29;20603;-82
2023/08/08 04:20:53;;;;;;;3.03;1.00;;;15.30;99.90;;;;;;4955123;28;20247;-82
2023/08/08 04:23:19;;;;;;;2.20;0.90;;;15.30;99.90;;;;;;4955860;28;20290;-82
2023/08/08 04:25:45;;;;;;;2.67;1.00;;;15.30;99.90;;;;;;4959777;28;20224;-82
2023/08/08 04:28:10;;;;;;;3.30;1.00;;;15.30;99.90;;;;;;4955030;28;20180;-82
2023/08/08 04:30:36;;;;;;;2.17;1.10;;;15.40;99.90;;;;;;4955193;28;20588;-82
2023/08/08 04:33:02;;;;;;;2.30;0.97;;;15.40;99.90;;;;;;4964819;28;20187;-79
2023/08/08 04:35:28;;;;;;;2.63;1.13;;;15.40;99.90;;;;;;4964710;28;20612;-81
2023/08/08 04:37:53;;;;;;;4.30;1.23;;;15.40;99.90;;;;;;4962358;28;20958;-80
2023/08/08 04:40:19;;;;;;;2.57;1.00;;;15.40;99.90;;;;;;4963782;28;20188;-80
2023/08/08 04:42:45;;;;;;;2.90;0.90;;;15.40;99.90;;;;;;4976215;28;20180;-81
2023/08/08 04:45:10;;;;;;;2.83;1.40;;;15.40;99.90;;;;;;4969244;28;20172;-81
2023/08/08 04:47:36;;;;;;;2.30;1.10;;;15.40;99.90;;;;;;4957323;28;20185;-81
2023/08/08 04:50:02;;;;;;;3.53;1.37;;;15.40;99.90;;;;;;4960479;28;20176;-81
2023/08/08 04:52:28;;;;;;;5.63;1.20;;;15.40;99.90;;;;;;4961615;28;20191;-80
2023/08/08 04:54:53;;;;;;;5.40;1.10;;;15.50;99.90;;;;;;4962014;28;20639;-80
2023/08/08 04:57:19;;;;;;;3.80;1.50;;;15.50;99.90;;;;;;4961046;28;20184;-80
2023/08/08 04:59:45;;;;;;;3.03;1.17;;;15.50;99.90;;;;;;4978161;28;20179;-80
2023/08/08 05:02:11;;;;;;;4.60;1.10;;;15.60;99.90;;;;;;4962764;28;20188;-80
2023/08/08 05:04:37;;;;;;;3.47;1.60;;;15.60;99.90;;;;;;4970944;28;20834;-80
2023/08/08 05:07:03;;;;;;;4.27;1.30;;;15.60;99.90;;;;;;4976348;28;20191;-80
2023/08/08 05:09:28;;;;;;;4.13;1.23;;;15.70;99.90;;;;;;4966183;28;20184;-80
2023/08/08 05:11:54;;;;;;;6.00;2.07;;;15.80;99.90;;;;;;4968831;28;20235;-80
2023/08/08 05:14:20;;;;;;;3.43;1.40;;;15.80;99.90;;;;;;4970323;28;20204;-79
2023/08/08 05:16:46;;;;;;;4.53;1.57;;;15.90;99.90;;;;;;4961602;28;20268;-80
2023/08/08 05:19:12;;;;;;;5.83;1.50;;;16.00;99.90;;;;;;4968246;28;20268;-80
2023/08/08 05:21:38;;;;;;;5.60;1.50;;;16.10;99.90;;;;;;4984618;28;20607;-80
2023/08/08 05:24:04;;;;;;;5.63;1.70;;;16.30;99.90;;;;;;4968525;28;20223;-80
2023/08/08 05:26:30;;;;;;;5.17;1.87;;;16.30;99.90;;;;;;4971226;28;20255;-80
2023/08/08 05:28:55;;;;;;;3.77;1.50;;;16.40;99.90;;;;;;4973208;28;20596;-81
2023/08/08 05:31:21;;;;;;;5.53;1.40;;;16.50;99.90;;;;;;4969948;28;20367;-80
2023/08/08 05:33:48;;;;;;;3.60;1.20;;;16.60;99.90;;;;;;4958229;28;20302;-80
2023/08/08 05:36:14;;;;;;;8.13;2.30;;;16.70;99.90;;;;;;4958758;28;20204;-80
2023/08/08 05:38:41;;;;;;;4.47;1.53;;;16.80;99.90;;;;;;4956531;28;20675;-80
2023/08/08 05:41:07;;;;;;;5.67;1.40;;;16.90;99.90;;;;;;4944250;28;20603;-80
2023/08/08 05:43:33;;;;;;;4.20;1.27;;;17.00;99.90;;;;;;4959463;28;20615;-80
2023/08/08 05:45:59;;;;;;;5.53;1.40;;;17.10;99.90;;;;;;4964698;28;20729;-80
2023/08/08 05:48:25;;;;;;;4.27;1.30;;;17.20;99.90;;;;;;4969757;28;20623;-78
2023/08/08 05:50:51;;;;;;;3.03;1.83;;;17.40;99.90;;;;;;4956513;28;20588;-82
2023/08/08 05:53:16;;;;;;;3.10;1.50;;;17.50;99.90;;;;;;4952366;28;20239;-82
2023/08/08 05:55:42;;;;;;;4.87;1.63;;;17.50;99.90;;;;;;4961914;28;20239;-81
2023/08/08 05:58:09;;;;;;;4.83;1.40;;;17.50;99.90;;;;;;4973724;28;20237;-82
2023/08/08 06:00:34;;;;;;;4.20;1.20;;;17.90;99.90;;;;;;4973793;28;20183;-82
2023/08/08 06:03:01;;;;;;;4.50;1.40;;;18.50;99.90;;;;;;4964924;28;20595;-82
2023/08/08 06:05:27;;;;;;;8.20;1.80;;;19.20;99.90;;;;;;4959674;28;20234;-82
2023/08/08 06:07:52;;;;;;;2.13;1.23;;;19.80;99.90;;;;;;4971935;28;20619;-82
2023/08/08 06:10:18;;;;;;;2.87;1.27;;;20.10;99.90;;;;;;4968477;28;20355;-83
2023/08/08 06:12:44;;;;;;;4.70;1.30;;;20.40;99.90;;;;;;4969703;28;20555;-82
2023/08/08 06:15:09;;;;;;;3.13;1.20;;;20.50;99.90;;;;;;4973267;28;20207;-81
2023/08/08 06:17:35;;;;;;;3.57;1.40;;;20.80;99.90;;;;;;4971527;28;20180;-82
2023/08/08 06:20:01;;;;;;;2.80;1.30;;;21.20;99.90;;;;;;4971329;28;20190;-82
2023/08/08 06:22:26;;;;;;;2.93;1.20;;;21.60;99.90;;;;;;4972998;28;20176;-82
2023/08/08 06:24:52;;;;;;;3.40;1.37;;;22.00;99.90;;;;;;4963241;28;20180;-81
2023/08/08 06:27:18;;;;;;;2.70;1.10;;;22.50;99.90;;;;;;4968247;28;20203;-82
2023/08/08 06:29:44;;;;;;;6.57;1.30;;;23.00;99.90;;;;;;4964173;28;20183;-81
2023/08/08 06:32:09;;;;;;;6.17;1.93;;;23.40;99.90;;;;;;4971155;28;20226;-83
2023/08/08 06:34:35;;;;;;;4.57;1.10;;;23.90;99.90;;;;;;4965546;28;20589;-82
2023/08/08 06:37:02;;;;;;;3.80;1.03;;;24.30;99.90;;;;;;4962286;28;20230;-84
2023/08/08 06:39:27;;;;;;;5.30;1.20;;;24.60;99.90;;;;;;4987846;28;20183;-83
2023/08/08 06:41:53;;;;;;;5.07;1.10;;;24.80;99.90;;;;;;4971517;28;21161;-81
2023/08/08 06:44:32;;;;;;;4.20;1.07;;;25.10;99.90;;;;;;4948905;28;20189;-82
2023/08/08 06:46:58;;;;;;;3.93;1.17;;;25.50;99.90;;;;;;4949488;28;20618;-81
2023/08/08 06:49:24;;;;;;;5.40;1.50;;;25.80;99.90;;;;;;4970892;28;20601;-83
2023/08/08 06:51:50;;;;;;;3.80;1.20;;;26.10;99.90;;;;;;4933832;28;20176;-84
2023/08/08 06:54:15;;;;;;;4.77;0.80;;;26.10;99.90;;;;;;4974200;28;20207;-81
2023/08/08 06:56:41;;;;;;;2.57;0.90;;;26.00;99.90;;;;;;4972430;28;20615;-81
2023/08/08 06:59:07;;;;;;;2.53;1.37;;;26.20;99.90;;;;;;4965073;28;20182;-82
2023/08/08 07:01:33;;;;;;;2.80;1.10;;;26.40;99.90;;;;;;4971223;28;20190;-82
2023/08/08 07:03:59;;;;;;;4.83;1.40;;;26.60;99.90;;;;;;4961638;28;20184;-82
2023/08/08 07:06:25;;;;;;;4.73;1.50;;;26.90;99.90;;;;;;4971361;28;20616;-81
2023/08/08 07:08:51;;;;;;;3.13;1.10;;;27.00;99.90;;;;;;4971329;28;20660;-82
2023/08/08 07:11:16;;;;;;;4.90;1.23;;;27.20;99.90;;;;;;4971254;28;20183;-82
2023/08/08 07:13:43;;;;;;;5.77;1.00;;;27.40;99.90;;;;;;4964202;28;20211;-82
2023/08/08 07:16:08;;;;;;;8.70;1.40;;;27.60;99.90;;;;;;4972272;28;20661;-82
2023/08/08 07:18:34;;;;;;;2.67;1.00;;;27.80;99.90;;;;;;4964283;28;20190;-84
2023/08/08 07:21:00;;;;;;;1.90;0.90;;;27.60;99.90;;;;;;4974247;28;20182;-83
2023/08/08 07:23:26;;;;;;;3.30;1.17;;;27.30;99.90;;;;;;4971047;28;20683;-84
2023/08/08 07:25:52;;;;;;;3.90;1.40;;;27.00;99.90;;;;;;4965930;28;20636;-81
2023/08/08 07:28:18;;;;;;;2.43;1.13;;;26.70;99.90;;;;;;4973240;28;20329;-84
2023/08/08 07:30:43;;;;;;;4.30;1.30;;;26.60;99.90;;;;;;4972022;28;20560;-82
2023/08/08 07:33:09;;;;;;;5.47;1.10;;;26.60;99.90;;;;;;4972632;28;20183;-82
2023/08/08 07:35:35;;;;;;;3.23;1.10;;;26.60;99.90;;;;;;4971262;28;20203;-81
2023/08/08 07:38:01;;;;;;;3.13;1.10;;;26.50;99.90;;;;;;4971016;28;20192;-83
2023/08/08 07:40:27;;;;;;;4.93;1.20;;;26.40;99.90;;;;;;4971112;28;20263;-82
2023/08/08 07:42:53;;;;;;;2.37;1.20;;;26.40;99.90;;;;;;4978623;28;20675;-82
2023/08/08 07:45:18;;;;;;;6.37;1.53;;;26.40;99.90;;;;;;4970678;28;20625;-82
2023/08/08 07:47:44;;;;;;;2.90;1.20;;;26.40;99.90;;;;;;4970766;28;20202;-83
2023/08/08 07:50:11;;;;;;;8.10;1.63;;;26.40;99.90;;;;;;4970397;28;20184;-81
2023/08/08 07:52:37;;;;;;;5.30;1.20;;;26.20;99.90;;;;;;4966035;28;20624;-83
2023/08/08 07:55:04;;;;;;;6.90;1.20;;;26.10;99.90;;;;;;4970328;28;20915;-83
2023/08/08 07:57:35;;;;;;;2.93;1.10;;;25.90;99.90;;;;;;4960739;28;20657;-83
2023/08/08 08:00:08;;;;;;;6.90;1.67;;;25.90;99.90;;;;;;4974430;28;20587;-82
2023/08/08 08:02:38;;;;;;;5.53;1.57;;;26.00;99.90;;;;;;4975748;28;20637;-82
2023/08/08 08:05:07;;;;;;;2.87;1.20;;;26.00;99.90;;;;;;4968945;28;20621;-83
2023/08/08 08:07:36;;;;;;;5.73;2.13;;;26.10;99.90;;;;;;4966645;28;20588;-83
2023/08/08 08:10:08;;;;;;;2.77;1.30;;;26.20;99.90;;;;;;4990523;28;20589;-82
2023/08/08 08:12:34;;;;;;;3.80;1.63;;;26.30;99.90;;;;;;4990224;28;20591;-82
2023/08/08 08:15:01;;;;;;;3.03;1.57;;;26.20;99.90;;;;;;4976553;28;20679;-82
2023/08/08 08:17:28;;;;;;;4.20;1.57;;;26.30;99.90;;;;;;4969033;28;20580;-82
2023/08/08 08:19:54;;;;;;;6.50;1.20;;;26.20;99.90;;;;;;4970825;28;20597;-83
2023/08/08 08:22:20;;;;;;;5.83;1.60;;;26.10;99.90;;;;;;4963319;28;20619;-82
2023/08/08 08:24:46;;;;;;;2.90;1.50;;;25.90;99.90;;;;;;4971540;28;20595;-82
2023/08/08 08:27:12;;;;;;;2.60;1.30;;;25.60;99.90;;;;;;4961150;28;20226;-81
2023/08/08 08:29:39;;;;;;;4.00;1.47;;;25.30;99.90;;;;;;4970769;28;20192;-83
2023/08/08 08:32:04;;;;;;;4.53;1.57;;;25.10;99.90;;;;;;4953232;29;20638;-82
2023/08/08 08:34:30;;;;;;;3.93;1.77;;;24.80;99.90;;;;;;4959620;28;20662;-83
2023/08/08 08:36:56;;;;;;;5.60;1.90;;;24.40;99.90;;;;;;4986875;28;20298;-83
2023/08/08 08:39:22;;;;;;;3.80;1.67;;;24.10;99.90;;;;;;4959086;28;20179;-82
2023/08/08 08:41:53;;;;;;;3.93;1.60;;;23.70;99.90;;;;;;4975253;28;20590;-82
2023/08/08 08:44:21;;;;;;;2.77;1.30;;;23.40;99.90;;;;;;4971162;28;21160;-82
2023/08/08 08:46:48;;;;;;;3.20;1.90;;;23.20;99.90;;;;;;4955510;28;20663;-79
2023/08/08 08:49:16;;;;;;;3.80;1.50;;;22.90;99.90;;;;;;4972834;28;20679;-83
2023/08/08 08:51:42;;;;;;;5.97;2.50;;;22.70;99.90;;;;;;4961492;28;20621;-82
2023/08/08 08:54:09;;;;;;;12.63;3.40;;;22.50;99.90;;;;;;4969840;28;21216;-82
2023/08/08 08:56:34;;;;;;;5.50;2.27;;;22.40;99.90;;;;;;4976815;23;20223;-74
2023/08/08 08:59:00;;;;;;;4.20;1.90;;;22.30;99.90;;;;;;4945134;28;20597;-74
2023/08/08 09:01:28;;;;;;;4.33;1.70;;;22.20;99.90;;;;;;4952613;29;20607;-74
2023/08/08 09:03:54;;;;;;;4.97;1.63;;;22.20;99.90;;;;;;4952979;28;20702;-74
2023/08/08 09:06:23;;;;;;;3.90;1.93;;;22.20;99.90;;;;;;4949755;28;21206;-74
2023/08/08 09:08:48;;;;;;;3.90;1.83;;;22.20;99.90;;;;;;4937936;28;20691;-73
2023/08/08 09:11:14;;;;;;;4.10;1.50;;;22.20;99.90;;;;;;4933729;28;20700;-73
2023/08/08 09:13:40;;;;;;;2.90;1.50;;;22.20;99.90;;;;;;4934967;29;20272;-73
2023/08/08 09:16:08;;;;;;;4.83;1.80;;;22.20;99.90;;;;;;4933706;29;20228;-73
2023/08/08 09:18:34;;;;;;;3.60;1.60;;;22.20;99.90;;;;;;4933656;28;20601;-73
2023/08/08 09:21:00;;;;;;;3.10;1.50;;;22.30;99.90;;;;;;4934417;28;20599;-73
2023/08/08 09:23:26;;;;;;;6.30;2.00;;;22.30;99.90;;;;;;4945331;28;20584;-73
2023/08/08 09:25:53;;;;;;;2.53;1.30;;;22.30;99.90;;;;;;4952617;29;20643;-74
2023/08/08 09:28:18;;;;;;;4.27;1.70;;;22.30;99.90;;;;;;4942796;28;20700;-74
2023/08/08 09:30:44;;;;;;;3.00;1.50;;;22.20;99.90;;;;;;4933831;29;20216;-73
2023/08/08 09:33:11;;;;;;;4.40;1.87;;;22.20;99.90;;;;;;4934171;29;20185;-74
2023/08/08 09:35:40;;;;;;;2.73;1.67;;;22.20;99.90;;;;;;4946416;28;20999;-74
2023/08/08 09:38:07;;;;;;;3.83;1.80;;;22.30;99.90;;;;;;4919146;29;20601;-75
2023/08/08 09:40:33;;;;;;;4.13;1.20;;;22.40;99.90;;;;;;4933231;28;20609;-74
2023/08/08 09:42:59;;;;;;;7.00;1.73;;;22.50;99.90;;;;;;4934032;28;20640;-74
2023/08/08 09:45:24;;;;;;;8.27;1.77;;;22.60;99.90;;;;;;4957620;28;20197;-74
2023/08/08 09:47:52;;;;;;;5.13;2.90;;;22.80;99.90;;;;;;4949572;29;20996;-74
2023/08/08 09:50:19;;;;;;;4.03;2.60;;;22.90;99.90;;;;;;4941277;28;20184;-74
2023/08/08 09:52:46;;;;;;;4.50;2.20;;;23.00;99.90;;;;;;4929806;29;21181;-74
2023/08/08 09:55:14;;;;;;;3.33;1.50;;;23.20;99.90;;;;;;4935130;28;20648;-74
2023/08/08 09:57:41;;;;;;;7.30;1.93;;;23.20;99.90;;;;;;4945725;29;20600;-74
2023/08/08 10:00:11;;;;;;;3.40;1.67;;;23.20;99.90;;;;;;4948544;28;20615;-74
2023/08/08 10:02:37;;;;;;;4.07;1.30;;;23.30;99.90;;;;;;4932855;28;20680;-74
2023/08/08 10:05:04;;;;;;;3.83;1.53;;;23.30;99.90;;;;;;4932879;28;20701;-75
2023/08/08 10:07:30;;;;;;;7.00;1.87;;;23.40;99.90;;;;;;4934152;29;20588;-74
2023/08/08 10:09:58;;;;;;;6.80;1.10;;;23.40;99.90;;;;;;4961231;28;20581;-74
2023/08/08 10:12:26;;;;;;;6.03;1.40;;;23.30;99.90;;;;;;4937471;29;20626;-74
2023/08/08 10:14:52;;;;;;;4.63;1.10;;;23.20;99.90;;;;;;4968128;28;20643;-74
2023/08/08 10:17:18;;;;;;;2.87;1.67;;;23.10;99.90;;;;;;4942170;28;21138;-74
2023/08/08 10:19:57;;;;;;;4.67;1.27;;;23.20;99.90;;;;;;4933778;29;21134;-74
2023/08/08 10:22:24;;;;;;;2.67;1.30;;;23.30;99.90;;;;;;4941700;29;21129;-75
2023/08/08 10:24:54;;;;;;;2.73;1.20;;;23.50;99.90;;;;;;4934169;29;20597;-75
2023/08/08 10:27:35;;;;;;;4.20;1.30;;;23.80;99.90;;;;;;4945804;29;20584;-74
2023/08/08 10:30:09;;;;;;;4.80;1.30;;;24.20;99.90;;;;;;4942942;28;20597;-74
2023/08/08 10:32:48;;;;;;;3.60;1.30;;;24.70;99.90;;;;;;4932334;28;21056;-74
2023/08/08 10:35:14;;;;;;;2.43;1.00;;;25.30;99.90;;;;;;4933561;29;20648;-74
2023/08/08 10:37:51;;;;;;;3.43;1.30;;;25.90;99.90;;;;;;4948456;28;20620;-74
2023/08/08 10:40:19;;;;;;;2.90;1.50;;;26.30;99.90;;;;;;4933603;29;20620;-74
2023/08/08 10:42:46;;;;;;;6.00;1.20;;;26.50;99.90;;;;;;4940502;28;20611;-74
2023/08/08 10:45:14;;;;;;;4.70;1.10;;;26.60;98.90;;;;;;4957815;28;20660;-74
2023/08/08 10:47:40;;;;;;;2.43;0.90;;;26.50;97.80;;;;;;4932569;28;20593;-73
2023/08/08 10:50:11;;;;;;;3.20;1.20;;;26.40;97.00;;;;;;4916263;29;20585;-74
2023/08/08 10:52:52;;;;;;;4.60;1.40;;;26.20;96.40;;;;;;4943719;28;20616;-74
2023/08/08 10:55:23;;;;;;;2.37;1.00;;;26.10;95.90;;;;;;4940996;29;20712;-75
2023/08/08 10:57:58;;;;;;;3.13;0.93;;;25.90;95.70;;;;;;4948445;29;20584;-74
2023/08/08 11:00:27;;;;;;;2.93;1.00;;;25.70;95.40;;;;;;4948005;28;20585;-74
2023/08/08 11:02:55;;;;;;;4.80;1.10;;;25.50;95.20;;;;;;4945489;29;20664;-75
2023/08/08 11:05:22;;;;;;;2.30;1.07;;;25.30;95.50;;;;;;4940543;29;20688;-74
2023/08/08 11:07:48;;;;;;;3.00;1.07;;;25.10;95.60;;;;;;4940309;28;20597;-75
2023/08/08 11:10:14;;;;;;;4.07;1.60;;;25.00;95.70;;;;;;4941144;29;20597;-74
2023/08/08 11:12:40;;;;;;;6.23;1.40;;;24.90;96.10;;;;;;4938468;28;20620;-74
2023/08/08 11:15:06;;;;;;;5.10;1.50;;;24.80;95.80;;;;;;4964397;28;20214;-76
2023/08/08 11:17:32;;;;;;;6.03;2.03;;;24.70;95.60;;;;;;4940559;29;20177;-75
2023/08/08 11:19:58;;;;;;;6.03;1.40;;;24.60;95.70;;;;;;4940000;28;20598;-74
2023/08/08 11:22:24;;;;;;;3.43;1.70;;;24.40;96.00;;;;;;4932109;29;21124;-74
2023/08/08 11:24:50;;;;;;;2.77;0.97;;;24.40;95.90;;;;;;4941299;29;20601;-74
2023/08/08 11:27:16;;;;;;;3.30;1.30;;;24.30;96.70;;;;;;4949029;29;20568;-74
2023/08/08 11:29:51;;;;;;;6.13;1.37;;;24.40;96.30;;;;;;4962703;28;20596;-74
2023/08/08 11:32:17;;;;;;;2.80;1.27;;;24.40;96.10;;;;;;4952635;28;20188;-74
2023/08/08 11:34:46;;;;;;;4.90;1.80;;;24.50;96.60;;;;;;4937354;29;20628;-74
2023/08/08 11:37:14;;;;;;;5.90;2.53;;;24.50;96.20;;;;;;4940016;28;20724;-74
2023/08/08 11:39:41;;;;;;;5.90;1.70;;;24.50;96.20;;;;;;4943491;29;20624;-74
2023/08/08 11:42:06;;;;;;;3.80;1.90;;;24.60;96.20;;;;;;4944604;29;20632;-74
2023/08/08 11:44:32;;;;;;;4.93;3.00;;;24.70;96.00;;;;;;4951688;28;20957;-73
2023/08/08 11:47:02;;;;;;;3.80;2.00;;;24.70;95.90;;;;;;4935644;29;20192;-74
2023/08/08 11:49:28;;;;;;;6.00;1.53;;;24.80;95.30;;;;;;4936063;28;20652;-74
2023/08/08 11:51:59;;;;;;;3.53;1.10;;;24.80;95.70;;;;;;4944342;29;20600;-74
2023/08/08 11:54:28;;;;;;;2.77;1.10;;;24.70;95.30;;;;;;4947191;29;20208;-74
2023/08/08 11:56:54;;;;;;;5.53;1.30;;;24.80;95.20;;;;;;4946451;28;20636;-74
2023/08/08 11:59:20;;;;;;;3.50;1.20;;;24.70;95.20;;;;;;4946984;28;20591;-73
2023/08/08 12:01:46;;;;;;;3.00;1.07;;;24.60;94.30;;;;;;4954040;29;20647;-74
2023/08/08 12:04:11;;;;;;;4.07;1.00;;;24.40;94.20;;;;;;4945258;29;20646;-73
2023/08/08 12:06:43;;;;;;;4.60;1.40;;;24.30;94.00;;;;;;4947729;28;20634;-73
2023/08/08 12:09:14;;;;;;;3.80;0.97;;;24.10;94.00;;;;;;4951769;28;20678;-73
2023/08/08 12:11:40;;;;;;;4.73;1.00;;;24.00;93.80;;;;;;4947225;28;20607;-73
2023/08/08 12:14:13;;;;;;;4.27;2.00;;;23.90;94.00;;;;;;4946991;28;20668;-74
2023/08/08 12:16:39;;;;;;;7.30;3.40;;;23.80;94.20;;;;;;4936394;29;21281;-73
2023/08/08 12:19:10;;;;;;;3.37;1.97;;;23.80;94.40;;;;;;4936105;29;20580;-75
2023/08/08 12:21:36;;;;;;;4.87;1.40;;;23.80;94.40;;;;;;4935849;29;20581;-74
2023/08/08 12:24:02;;;;;;;2.10;1.10;;;23.80;94.70;;;;;;4947176;29;20953;-73
2023/08/08 12:26:28;;;;;;;3.10;1.00;;;23.90;95.00;;;;;;4949982;28;20231;-73
2023/08/08 12:28:54;;;;;;;4.13;1.10;;;23.90;94.20;;;;;;4945108;29;20217;-73
2023/08/08 12:31:20;;;;;;;2.90;1.37;;;23.90;93.90;;;;;;4943900;29;20219;-74
2023/08/08 12:33:48;;;;;;;5.10;1.10;;;23.90;94.00;;;;;;4934495;29;20652;-75
2023/08/08 12:36:14;;;;;;;5.00;0.90;;;23.90;93.90;;;;;;4948505;28;20707;-76
2023/08/08 12:38:40;;;;;;;3.90;0.80;;;23.90;93.90;;;;;;4935939;29;20617;-75
2023/08/08 12:41:06;;;;;;;3.83;1.10;;;23.80;93.90;;;;;;4947189;28;20675;-77
2023/08/08 12:43:34;;;;;;;2.90;0.90;;;23.80;94.00;;;;;;4964362;28;20600;-76
2023/08/08 12:46:00;;;;;;;3.93;1.60;;;23.90;94.20;;;;;;4949811;28;20638;-76